Time;durP1;ratioP1;P1;durP2;ratioP2;P2;SDS_P1;SDS_P2;PMS_P1;PMS_P2;Temp;Humidity;BMP_temperature;BMP_pressure;BME280_temperature;BME280_humidity;BME280_pressure;Samples;Min_cycle;Max_cycle;Signal;HPM_P1;HPM_P2
2021/06/09 00:00:49;;;;;;;2.88;2.35;;;24.70;42.80;;;;;;4969424;28;20205;-52
2021/06/09 00:03:15;;;;;;;2.97;2.40;;;24.70;42.80;;;;;;4972078;28;20605;-52
2021/06/09 00:05:41;;;;;;;2.38;2.28;;;24.70;42.80;;;;;;4967308;28;20211;-51
2021/06/09 00:08:07;;;;;;;2.58;2.38;;;24.70;42.80;;;;;;4967659;28;20209;-50
2021/06/09 00:10:32;;;;;;;2.70;2.50;;;24.70;42.80;;;;;;4970693;28;20205;-52
2021/06/09 00:12:58;;;;;;;2.55;2.35;;;24.70;42.80;;;;;;4969371;28;20224;-55
2021/06/09 00:15:25;;;;;;;2.85;2.53;;;24.70;42.80;;;;;;4970493;28;20685;-54
2021/06/09 00:17:51;;;;;;;2.42;2.22;;;24.70;42.80;;;;;;4966975;28;20253;-50
2021/06/09 00:20:17;;;;;;;2.50;2.30;;;24.70;42.80;;;;;;4970357;28;20671;-54
2021/06/09 00:22:43;;;;;;;2.50;2.30;;;24.70;42.80;;;;;;4970939;28;20275;-53
2021/06/09 00:25:14;;;;;;;2.72;2.53;;;24.70;42.80;;;;;;4972489;28;20201;-53
2021/06/09 00:27:40;;;;;;;2.65;2.45;;;24.70;42.80;;;;;;4970566;28;20201;-53
2021/06/09 00:30:06;;;;;;;2.65;2.38;;;24.70;42.80;;;;;;4971227;28;20208;-53
2021/06/09 00:32:32;;;;;;;2.67;2.47;;;24.70;42.80;;;;;;4970773;28;20587;-54
2021/06/09 00:34:58;;;;;;;2.55;2.35;;;24.70;42.70;;;;;;4971803;28;20232;-53
2021/06/09 00:37:24;;;;;;;2.45;2.25;;;24.70;42.70;;;;;;4971337;28;20204;-50
2021/06/09 00:39:50;;;;;;;2.47;2.20;;;24.70;42.80;;;;;;4970214;28;20510;-52
2021/06/09 00:42:16;;;;;;;3.03;2.20;;;24.70;42.80;;;;;;4971249;28;20224;-49
2021/06/09 00:44:42;;;;;;;4.20;2.47;;;24.70;42.80;;;;;;4970644;28;20207;-51
2021/06/09 00:47:08;;;;;;;2.70;2.50;;;24.70;42.80;;;;;;4969287;28;20209;-52
2021/06/09 00:49:34;;;;;;;2.78;2.58;;;24.70;42.80;;;;;;4970036;28;20270;-51
2021/06/09 00:52:00;;;;;;;2.90;2.70;;;24.70;42.70;;;;;;4967318;28;20563;-50
2021/06/09 00:54:26;;;;;;;2.30;2.10;;;24.70;42.80;;;;;;4970415;28;20239;-53
2021/06/09 00:56:52;;;;;;;2.40;2.25;;;24.70;42.80;;;;;;4971025;28;20200;-53
2021/06/09 00:59:18;;;;;;;2.55;2.35;;;24.70;42.80;;;;;;4970353;28;20200;-49
2021/06/09 01:01:44;;;;;;;2.53;2.33;;;24.70;42.80;;;;;;4970818;28;20197;-49
2021/06/09 01:04:10;;;;;;;2.97;2.35;;;24.70;42.80;;;;;;4969516;28;22523;-51
2021/06/09 01:06:36;;;;;;;4.15;2.42;;;24.70;42.80;;;;;;4971059;28;20220;-47
2021/06/09 01:09:02;;;;;;;2.50;2.30;;;24.70;42.70;;;;;;4968376;28;20247;-48
2021/06/09 01:11:28;;;;;;;3.55;2.42;;;24.70;42.80;;;;;;4968349;28;20209;-51
2021/06/09 01:13:54;;;;;;;2.70;2.50;;;24.70;42.80;;;;;;4968479;28;20236;-53
2021/06/09 01:16:20;;;;;;;2.78;2.50;;;24.70;42.80;;;;;;4973445;28;20290;-54
2021/06/09 01:18:46;;;;;;;2.63;2.22;;;24.70;42.80;;;;;;4972388;28;20247;-51
2021/06/09 01:21:12;;;;;;;2.97;2.78;;;24.70;42.70;;;;;;4972992;28;20209;-50
2021/06/09 01:23:38;;;;;;;3.10;2.67;;;24.70;42.80;;;;;;4975056;28;20221;-52
2021/06/09 01:26:04;;;;;;;2.20;2.10;;;24.70;42.80;;;;;;4972734;28;20211;-50
2021/06/09 01:28:30;;;;;;;2.40;2.20;;;24.70;42.80;;;;;;4974568;28;20225;-49
2021/06/09 01:30:56;;;;;;;4.13;2.60;;;24.70;42.80;;;;;;4973089;28;20225;-51
2021/06/09 01:33:22;;;;;;;2.67;2.47;;;24.70;42.80;;;;;;4974549;28;20216;-51
2021/06/09 01:35:48;;;;;;;2.60;2.35;;;24.70;42.90;;;;;;4973451;28;20564;-54
2021/06/09 01:38:14;;;;;;;2.60;2.40;;;24.70;42.80;;;;;;4973339;28;20211;-50
2021/06/09 01:40:40;;;;;;;2.97;2.55;;;24.70;42.90;;;;;;4973168;28;20204;-49
2021/06/09 01:43:06;;;;;;;2.35;2.15;;;24.70;42.90;;;;;;4973679;28;20248;-51
2021/06/09 01:45:32;;;;;;;2.85;2.60;;;24.70;42.90;;;;;;4973359;28;20236;-50
2021/06/09 01:47:59;;;;;;;2.63;2.42;;;24.70;42.90;;;;;;4973765;28;20236;-48
2021/06/09 01:50:25;;;;;;;4.03;2.60;;;24.70;42.90;;;;;;4973060;28;20291;-48
2021/06/09 01:52:51;;;;;;;2.83;2.53;;;24.70;42.90;;;;;;4972529;28;20601;-52
2021/06/09 01:55:17;;;;;;;2.67;2.38;;;24.70;42.90;;;;;;4973824;28;20236;-49
2021/06/09 01:57:43;;;;;;;2.30;2.10;;;24.70;42.90;;;;;;4972678;28;20262;-49
2021/06/09 02:00:09;;;;;;;2.20;2.00;;;24.70;42.90;;;;;;4974446;28;20204;-50
2021/06/09 02:02:35;;;;;;;4.18;2.33;;;24.70;42.90;;;;;;4971296;28;20220;-49
2021/06/09 02:05:01;;;;;;;2.40;2.20;;;24.70;43.60;;;;;;4969639;28;20650;-52
2021/06/09 02:07:27;;;;;;;2.10;2.00;;;24.70;42.90;;;;;;4969328;28;20267;-50
2021/06/09 02:09:53;;;;;;;4.13;2.92;;;24.70;42.90;;;;;;4974543;28;20287;-49
2021/06/09 02:12:19;;;;;;;2.33;2.10;;;24.70;42.90;;;;;;4972525;28;20251;-53
2021/06/09 02:14:45;;;;;;;2.50;2.30;;;24.70;42.90;;;;;;4971895;28;20228;-50
2021/06/09 02:17:11;;;;;;;2.58;2.38;;;24.70;43.00;;;;;;4972163;28;20657;-48
2021/06/09 02:19:37;;;;;;;2.50;2.28;;;24.70;42.90;;;;;;4974097;28;20216;-48
2021/06/09 02:22:03;;;;;;;3.88;2.30;;;24.70;42.90;;;;;;4972736;28;20224;-53
2021/06/09 02:24:29;;;;;;;2.95;2.75;;;24.70;42.90;;;;;;4973473;28;20252;-51
2021/06/09 02:26:55;;;;;;;2.28;2.17;;;24.70;43.00;;;;;;4973134;28;20197;-50
2021/06/09 02:29:21;;;;;;;3.15;2.25;;;24.70;43.00;;;;;;4973003;28;20653;-49
2021/06/09 02:31:47;;;;;;;2.47;2.28;;;24.70;43.00;;;;;;4973051;28;20205;-49
2021/06/09 02:34:13;;;;;;;2.17;1.98;;;24.70;43.00;;;;;;4971116;28;20551;-52
2021/06/09 02:36:39;;;;;;;2.47;2.28;;;24.70;43.00;;;;;;4973320;28;20270;-48
2021/06/09 02:39:05;;;;;;;2.80;2.60;;;24.70;43.00;;;;;;4972532;28;20614;-51
2021/06/09 02:41:31;;;;;;;2.47;2.30;;;24.70;43.00;;;;;;4973719;28;20212;-53
2021/06/09 02:43:58;;;;;;;3.85;2.58;;;24.70;42.90;;;;;;4972263;28;20231;-51
2021/06/09 02:46:24;;;;;;;2.75;2.47;;;24.60;42.90;;;;;;4972694;28;20212;-52
2021/06/09 02:48:50;;;;;;;2.72;2.30;;;24.70;43.00;;;;;;4968700;28;20215;-55
2021/06/09 02:51:16;;;;;;;2.40;2.20;;;24.70;43.00;;;;;;4972942;28;20561;-51
2021/06/09 02:53:42;;;;;;;2.60;2.40;;;24.70;43.00;;;;;;4971926;28;20232;-53
2021/06/09 02:56:08;;;;;;;2.47;2.28;;;24.70;43.00;;;;;;4972845;28;20201;-54
2021/06/09 02:58:34;;;;;;;3.38;3.08;;;24.70;43.00;;;;;;4971907;28;20271;-48
2021/06/09 03:01:00;;;;;;;2.50;2.25;;;24.70;43.00;;;;;;4970674;28;20204;-51
2021/06/09 03:03:26;;;;;;;2.55;2.30;;;24.70;43.00;;;;;;4972278;28;20228;-54
2021/06/09 03:05:52;;;;;;;3.67;2.40;;;24.70;43.00;;;;;;4970436;28;20630;-53
2021/06/09 03:08:18;;;;;;;2.33;2.22;;;24.70;43.00;;;;;;4973085;28;20205;-53
2021/06/09 03:10:47;;;;;;;2.70;2.50;;;24.70;43.10;;;;;;4971339;28;20574;-53
2021/06/09 03:13:15;;;;;;;2.83;2.50;;;24.70;43.70;;;;;;4969673;28;20231;-52
2021/06/09 03:15:41;;;;;;;2.97;2.42;;;24.70;43.10;;;;;;4972206;28;20227;-51
2021/06/09 03:18:07;;;;;;;2.80;2.60;;;24.70;43.00;;;;;;4971735;28;20207;-50
2021/06/09 03:20:33;;;;;;;2.75;2.50;;;24.70;43.80;;;;;;4972996;28;20223;-54
2021/06/09 03:22:59;;;;;;;2.50;2.30;;;24.70;43.10;;;;;;4972344;28;20735;-53
2021/06/09 03:25:25;;;;;;;3.38;2.35;;;24.70;43.10;;;;;;4971743;28;20235;-53
2021/06/09 03:27:51;;;;;;;2.67;2.35;;;24.70;43.10;;;;;;4972416;28;20543;-54
2021/06/09 03:30:17;;;;;;;2.60;2.35;;;24.70;43.10;;;;;;4971652;28;20251;-50
2021/06/09 03:32:43;;;;;;;2.55;2.35;;;24.70;43.10;;;;;;4972164;28;20299;-53
2021/06/09 03:35:09;;;;;;;2.58;2.38;;;24.70;43.10;;;;;;4969600;28;20239;-54
2021/06/09 03:37:35;;;;;;;2.83;2.35;;;24.60;43.00;;;;;;4966506;28;20201;-49
2021/06/09 03:40:01;;;;;;;2.67;2.10;;;24.60;43.00;;;;;;4961481;28;20235;-53
2021/06/09 03:42:27;;;;;;;2.30;2.20;;;24.70;43.10;;;;;;4971048;28;20700;-53
2021/06/09 03:44:53;;;;;;;2.40;2.20;;;24.70;43.10;;;;;;4971281;28;20215;-53
2021/06/09 03:47:19;;;;;;;2.45;2.25;;;24.60;43.10;;;;;;4966798;28;20662;-53
2021/06/09 03:49:45;;;;;;;3.25;2.67;;;24.60;43.10;;;;;;4972656;28;20201;-51
2021/06/09 03:52:11;;;;;;;2.47;2.28;;;24.70;43.20;;;;;;4970893;28;20281;-51
2021/06/09 03:54:37;;;;;;;2.53;2.33;;;24.60;43.20;;;;;;4969147;28;20656;-50
2021/06/09 03:57:02;;;;;;;2.30;2.17;;;24.70;43.20;;;;;;4971292;28;20212;-48
2021/06/09 03:59:28;;;;;;;3.15;2.42;;;24.60;43.10;;;;;;4971162;28;20200;-54
2021/06/09 04:01:55;;;;;;;2.38;2.20;;;24.70;43.20;;;;;;4971954;28;20224;-51
2021/06/09 04:04:21;;;;;;;3.28;2.40;;;24.70;43.20;;;;;;4969530;28;20300;-50
2021/06/09 04:06:47;;;;;;;2.30;2.10;;;24.60;43.10;;;;;;4971804;28;20350;-52
2021/06/09 04:09:13;;;;;;;3.22;2.30;;;24.60;43.10;;;;;;4968358;28;20209;-52
2021/06/09 04:11:39;;;;;;;2.50;2.30;;;24.70;43.20;;;;;;4971663;28;20242;-49
2021/06/09 04:14:05;;;;;;;2.47;2.28;;;24.70;43.20;;;;;;4969115;28;20232;-54
2021/06/09 04:16:31;;;;;;;2.50;2.30;;;24.70;43.30;;;;;;4970580;28;20215;-53
2021/06/09 04:18:57;;;;;;;2.75;2.55;;;24.70;43.20;;;;;;4970869;28;20204;-50
2021/06/09 04:21:23;;;;;;;3.80;2.47;;;24.70;43.30;;;;;;4971774;28;20200;-51
2021/06/09 04:23:49;;;;;;;3.22;2.33;;;24.60;43.10;;;;;;4970860;28;20251;-51
2021/06/09 04:26:15;;;;;;;2.53;2.33;;;24.70;43.30;;;;;;4970453;28;20657;-54
2021/06/09 04:28:41;;;;;;;2.47;2.28;;;24.60;43.10;;;;;;4970739;28;20200;-53
2021/06/09 04:31:07;;;;;;;2.50;2.30;;;24.70;43.20;;;;;;4971005;28;20205;-49
2021/06/09 04:33:33;;;;;;;2.60;2.40;;;24.70;43.30;;;;;;4970757;28;20227;-47
2021/06/09 04:35:59;;;;;;;2.72;2.15;;;24.60;43.10;;;;;;4970181;28;20232;-52
2021/06/09 04:38:25;;;;;;;2.97;2.67;;;24.70;43.30;;;;;;4971474;28;20204;-51
2021/06/09 04:40:51;;;;;;;2.40;2.20;;;24.70;43.20;;;;;;4971275;28;20201;-50
2021/06/09 04:43:17;;;;;;;3.10;2.20;;;24.70;43.20;;;;;;4971138;28;20275;-51
2021/06/09 04:45:43;;;;;;;2.58;2.17;;;24.70;43.30;;;;;;4969691;28;20618;-49
2021/06/09 04:48:09;;;;;;;3.92;2.47;;;24.70;43.40;;;;;;4973896;28;20212;-51
2021/06/09 04:50:35;;;;;;;2.53;2.15;;;24.60;43.40;;;;;;4974894;28;20196;-49
2021/06/09 04:53:11;;;;;;;2.35;2.15;;;24.60;43.40;;;;;;4974399;28;20231;-54
2021/06/09 04:55:37;;;;;;;3.20;2.40;;;24.70;43.40;;;;;;4970892;28;20231;-53
2021/06/09 04:58:03;;;;;;;2.42;2.20;;;24.70;43.30;;;;;;4974078;28;20260;-51
2021/06/09 05:00:29;;;;;;;3.13;2.60;;;24.60;43.20;;;;;;4976085;28;20200;-50
2021/06/09 05:02:55;;;;;;;2.60;2.40;;;24.70;43.40;;;;;;4974719;28;20224;-53
2021/06/09 05:05:21;;;;;;;2.50;2.30;;;24.60;43.20;;;;;;4974194;28;20724;-52
2021/06/09 05:07:47;;;;;;;2.88;2.13;;;24.70;43.30;;;;;;4973819;28;20205;-53
2021/06/09 05:10:13;;;;;;;2.40;2.20;;;24.60;43.20;;;;;;4975202;28;20639;-52
2021/06/09 05:12:39;;;;;;;2.92;2.55;;;24.70;43.20;;;;;;4974281;28;20231;-53
2021/06/09 05:15:05;;;;;;;2.78;2.45;;;24.70;43.20;;;;;;4973563;28;20243;-50
2021/06/09 05:17:31;;;;;;;3.15;2.22;;;24.70;43.20;;;;;;4972470;28;20204;-50
2021/06/09 05:19:57;;;;;;;3.22;2.40;;;24.70;43.10;;;;;;4973959;28;20259;-48
2021/06/09 05:22:23;;;;;;;2.63;2.42;;;24.70;43.20;;;;;;4974691;28;20551;-48
2021/06/09 05:24:49;;;;;;;2.40;2.20;;;24.70;43.10;;;;;;4974292;28;20212;-52
2021/06/09 05:27:15;;;;;;;2.53;2.33;;;24.70;43.10;;;;;;4973174;28;20215;-55
2021/06/09 05:29:41;;;;;;;2.60;2.40;;;24.70;43.10;;;;;;4974910;28;20657;-52
2021/06/09 05:32:07;;;;;;;2.40;2.30;;;24.70;43.00;;;;;;4973476;28;20228;-50
2021/06/09 05:34:33;;;;;;;2.50;2.30;;;24.70;43.10;;;;;;4974154;28;20562;-53
2021/06/09 05:36:59;;;;;;;4.53;2.75;;;24.70;43.00;;;;;;4972899;28;20215;-55
2021/06/09 05:39:25;;;;;;;2.30;2.10;;;24.70;43.00;;;;;;4973566;28;20572;-53
2021/06/09 05:41:51;;;;;;;2.75;2.55;;;24.70;43.00;;;;;;4973231;28;20232;-51
2021/06/09 05:44:17;;;;;;;2.75;2.55;;;24.70;42.90;;;;;;4974430;28;20213;-52
2021/06/09 05:46:44;;;;;;;3.50;2.58;;;24.70;43.00;;;;;;4971133;28;20286;-55
2021/06/09 05:49:10;;;;;;;2.50;2.30;;;24.60;42.80;;;;;;4968902;28;20556;-53
2021/06/09 05:51:36;;;;;;;3.70;2.40;;;24.70;42.90;;;;;;4974023;28;20225;-54
2021/06/09 05:54:02;;;;;;;2.70;2.50;;;24.70;42.90;;;;;;4973861;28;20224;-54
2021/06/09 05:56:29;;;;;;;2.53;2.33;;;24.70;42.90;;;;;;4972452;28;20598;-53
2021/06/09 05:58:55;;;;;;;2.40;2.22;;;24.70;42.90;;;;;;4973099;28;20665;-54
2021/06/09 06:01:21;;;;;;;2.72;2.10;;;24.70;42.90;;;;;;4974303;28;20231;-55
2021/06/09 06:03:47;;;;;;;2.78;2.58;;;24.70;42.90;;;;;;4973563;28;20197;-53
2021/06/09 06:06:13;;;;;;;2.70;2.50;;;24.70;42.90;;;;;;4972796;28;20678;-53
2021/06/09 06:08:39;;;;;;;2.55;2.35;;;24.70;42.90;;;;;;4971481;28;20205;-49
2021/06/09 06:11:06;;;;;;;3.28;2.78;;;24.70;42.80;;;;;;4967405;28;20211;-54
2021/06/09 06:13:32;;;;;;;3.08;2.20;;;24.70;42.80;;;;;;4973104;28;20208;-50
2021/06/09 06:15:58;;;;;;;3.47;2.33;;;24.70;42.80;;;;;;4973160;28;20698;-53
2021/06/09 06:18:24;;;;;;;3.05;2.75;;;24.70;42.80;;;;;;4969040;28;20607;-52
2021/06/09 06:20:50;;;;;;;3.08;2.45;;;24.70;42.80;;;;;;4973115;28;20303;-53
2021/06/09 06:23:16;;;;;;;2.42;2.17;;;24.70;42.80;;;;;;4972865;28;20212;-53
2021/06/09 06:25:42;;;;;;;2.45;2.25;;;24.70;42.80;;;;;;4973523;28;20208;-54
2021/06/09 06:28:07;;;;;;;2.53;2.33;;;24.70;42.80;;;;;;4972692;28;20208;-51
2021/06/09 06:30:33;;;;;;;2.70;2.50;;;24.70;42.80;;;;;;4971817;28;20205;-52
2021/06/09 06:32:59;;;;;;;2.95;2.30;;;24.70;42.80;;;;;;4974059;28;20228;-57
2021/06/09 06:35:25;;;;;;;2.22;2.13;;;24.70;42.80;;;;;;4972455;28;20633;-51
2021/06/09 06:37:51;;;;;;;2.53;2.33;;;24.70;42.80;;;;;;4971762;28;20205;-55
2021/06/09 06:40:17;;;;;;;2.97;2.70;;;24.70;42.80;;;;;;4972652;28;20263;-54
2021/06/09 06:42:43;;;;;;;3.20;2.53;;;24.70;42.80;;;;;;4972418;28;20225;-50
2021/06/09 06:45:09;;;;;;;2.40;2.20;;;24.70;42.80;;;;;;4973522;28;20219;-51
2021/06/09 06:47:35;;;;;;;2.42;2.17;;;24.70;42.80;;;;;;4971507;28;20220;-54
2021/06/09 06:50:01;;;;;;;2.85;2.65;;;24.70;42.70;;;;;;4972821;28;20205;-52
2021/06/09 06:52:27;;;;;;;2.13;2.03;;;24.70;42.70;;;;;;4973057;28;20271;-54
2021/06/09 06:54:53;;;;;;;3.28;2.45;;;24.70;42.70;;;;;;4971909;28;20220;-53
2021/06/09 06:57:19;;;;;;;2.45;2.35;;;24.70;42.70;;;;;;4970086;28;20203;-50
2021/06/09 06:59:45;;;;;;;4.63;2.45;;;24.70;42.70;;;;;;4979330;28;20276;-50
2021/06/09 07:02:13;;;;;;;3.45;2.88;;;24.70;42.60;;;;;;4957400;28;20225;-45
2021/06/09 07:04:39;;;;;;;2.67;2.47;;;24.80;43.10;;;;;;4978611;28;20207;-48
2021/06/09 07:07:05;;;;;;;3.80;2.65;;;24.80;42.90;;;;;;4972232;28;20216;-54
2021/06/09 07:09:31;;;;;;;7.22;2.60;;;24.90;43.40;;;;;;4974045;28;20288;-49
2021/06/09 07:11:57;;;;;;;4.93;3.42;;;24.90;42.90;;;;;;4972933;28;20276;-47
2021/06/09 07:14:23;;;;;;;3.65;2.72;;;24.90;43.70;;;;;;4972904;28;20228;-46
2021/06/09 07:16:49;;;;;;;3.92;2.35;;;24.90;43.30;;;;;;4975504;28;20200;-46
2021/06/09 07:19:15;;;;;;;4.65;3.28;;;24.90;43.40;;;;;;4965923;28;20201;-46
2021/06/09 07:21:41;;;;;;;5.32;2.90;;;24.90;43.30;;;;;;4966165;28;20232;-47
2021/06/09 07:24:07;;;;;;;6.80;3.13;;;24.90;43.40;;;;;;4972768;28;20240;-47
2021/06/09 07:26:33;;;;;;;6.47;3.35;;;24.90;43.60;;;;;;4972635;28;20204;-47
2021/06/09 07:28:59;;;;;;;6.68;3.42;;;24.90;44.40;;;;;;4971701;28;20653;-46
2021/06/09 07:31:25;;;;;;;5.55;3.55;;;24.90;45.10;;;;;;4953843;28;20248;-44
2021/06/09 07:33:51;;;;;;;6.63;3.38;;;24.90;45.30;;;;;;4974288;28;20656;-48
2021/06/09 07:36:17;;;;;;;6.72;3.75;;;24.90;45.10;;;;;;4969501;28;20605;-44
2021/06/09 07:38:43;;;;;;;6.63;3.92;;;24.90;45.00;;;;;;4968034;28;20204;-47
2021/06/09 07:41:09;;;;;;;10.77;4.75;;;24.90;45.20;;;;;;4971257;28;20231;-47
2021/06/09 07:43:37;;;;;;;12.57;10.05;;;24.90;45.30;;;;;;4970783;28;20650;-50
2021/06/09 07:46:03;;;;;;;12.32;11.13;;;24.30;44.80;;;;;;4967547;28;20662;-48
2021/06/09 07:48:29;;;;;;;11.02;9.95;;;22.40;46.20;;;;;;4971336;28;20212;-47
2021/06/09 07:50:55;;;;;;;11.50;8.45;;;22.10;48.50;;;;;;4968716;28;20224;-49
2021/06/09 07:53:21;;;;;;;8.90;8.00;;;23.00;48.10;;;;;;4971689;28;20204;-51
2021/06/09 07:55:47;;;;;;;12.85;8.27;;;23.60;47.30;;;;;;4970799;28;20235;-48
2021/06/09 07:58:13;;;;;;;7.93;7.13;;;23.90;47.10;;;;;;4970246;28;20250;-46
2021/06/09 08:00:39;;;;;;;10.18;7.63;;;24.20;46.80;;;;;;4969331;28;20228;-49
2021/06/09 08:03:05;;;;;;;9.85;7.30;;;24.30;47.20;;;;;;4971531;28;20708;-51
2021/06/09 08:05:31;;;;;;;8.25;6.80;;;24.40;48.00;;;;;;4970722;28;20209;-48
2021/06/09 08:07:57;;;;;;;6.95;6.25;;;24.40;48.00;;;;;;4967651;28;20200;-47
2021/06/09 08:10:22;;;;;;;9.23;6.75;;;24.50;47.30;;;;;;4970081;28;20707;-47
2021/06/09 08:12:48;;;;;;;7.22;6.18;;;24.50;47.70;;;;;;4971967;28;20229;-51
2021/06/09 08:15:14;;;;;;;9.27;6.18;;;24.60;48.20;;;;;;4965203;28;20256;-46
2021/06/09 08:17:44;;;;;;;6.40;5.80;;;24.60;48.20;;;;;;4962186;28;20208;-45
2021/06/09 08:20:10;;;;;;;6.60;6.00;;;24.60;48.20;;;;;;4964699;28;20207;-47
2021/06/09 08:22:38;;;;;;;6.35;5.75;;;24.60;48.20;;;;;;4969730;28;20232;-46
2021/06/09 08:25:04;;;;;;;6.15;5.20;;;24.70;47.30;;;;;;4969397;28;20200;-49
2021/06/09 08:27:30;;;;;;;5.68;5.05;;;24.70;48.00;;;;;;4968023;28;20505;-45
2021/06/09 08:29:56;;;;;;;5.85;4.85;;;24.70;48.30;;;;;;4957777;28;20216;-54
2021/06/09 08:32:22;;;;;;;5.95;5.40;;;24.70;49.20;;;;;;4970018;28;20232;-53
2021/06/09 08:34:48;;;;;;;14.45;6.80;;;24.80;48.30;;;;;;4967745;28;20693;-47
2021/06/09 08:37:14;;;;;;;10.77;6.22;;;24.90;48.50;;;;;;4963782;28;20212;-49
2021/06/09 08:39:40;;;;;;;13.68;6.00;;;24.80;47.20;;;;;;4968492;28;20590;-53
2021/06/09 08:42:07;;;;;;;14.48;6.65;;;24.80;47.10;;;;;;4969901;28;20220;-54
2021/06/09 08:44:38;;;;;;;13.63;6.97;;;24.80;46.10;;;;;;4969644;28;20217;-51
2021/06/09 08:47:04;;;;;;;9.48;7.50;;;24.80;45.60;;;;;;4968317;28;20211;-45
2021/06/09 08:49:30;;;;;;;8.82;6.22;;;24.80;45.90;;;;;;4969275;28;20204;-46
2021/06/09 08:51:56;;;;;;;10.65;6.70;;;24.70;46.50;;;;;;4960962;28;20216;-46
2021/06/09 08:54:23;;;;;;;8.27;7.43;;;24.70;45.80;;;;;;4967923;28;20232;-50
2021/06/09 08:56:50;;;;;;;11.65;7.07;;;24.70;45.50;;;;;;4965112;28;20295;-48
2021/06/09 08:59:16;;;;;;;9.75;7.10;;;24.70;45.90;;;;;;4968858;28;20288;-47
2021/06/09 09:01:42;;;;;;;7.15;5.53;;;24.70;46.00;;;;;;4954215;28;20256;-45
2021/06/09 09:04:08;;;;;;;7.45;6.18;;;24.70;45.90;;;;;;4967863;28;20208;-45
2021/06/09 09:06:34;;;;;;;6.72;6.05;;;24.80;46.20;;;;;;4968011;28;20649;-47
2021/06/09 09:09:00;;;;;;;10.38;6.68;;;24.70;46.90;;;;;;4968301;28;20209;-48
2021/06/09 09:11:26;;;;;;;7.60;6.68;;;24.80;47.10;;;;;;4965607;28;20252;-45
2021/06/09 09:13:52;;;;;;;9.88;6.32;;;24.80;47.30;;;;;;4958975;28;20361;-43
2021/06/09 09:16:18;;;;;;;7.25;5.88;;;24.80;47.20;;;;;;4952138;28;20244;-45
2021/06/09 09:18:44;;;;;;;5.80;5.20;;;24.80;46.80;;;;;;4970414;28;20212;-48
2021/06/09 09:21:10;;;;;;;6.07;5.53;;;24.80;47.10;;;;;;4971255;28;20224;-45
2021/06/09 09:23:36;;;;;;;7.75;5.68;;;24.80;47.00;;;;;;4971823;28;20208;-49
2021/06/09 09:26:02;;;;;;;7.15;5.88;;;24.80;46.90;;;;;;4970976;28;20216;-46
2021/06/09 09:28:29;;;;;;;6.68;6.03;;;24.80;47.00;;;;;;4971692;28;20222;-49
2021/06/09 09:30:55;;;;;;;9.27;5.75;;;24.80;47.00;;;;;;4971290;28;20228;-46
2021/06/09 09:33:21;;;;;;;6.75;5.15;;;24.80;46.80;;;;;;4971418;28;20242;-50
2021/06/09 09:35:47;;;;;;;5.70;5.20;;;24.80;47.00;;;;;;4974336;28;20639;-45
2021/06/09 09:38:14;;;;;;;6.60;5.90;;;24.80;46.80;;;;;;4974793;28;20211;-47
2021/06/09 09:40:40;;;;;;;5.88;5.32;;;24.80;46.60;;;;;;4974734;28;20225;-52
2021/06/09 09:43:06;;;;;;;6.05;5.13;;;24.80;46.10;;;;;;4974452;28;20566;-46
2021/06/09 09:45:32;;;;;;;6.32;5.45;;;24.90;46.00;;;;;;4974875;28;20215;-45
2021/06/09 09:47:58;;;;;;;6.18;5.43;;;24.90;46.10;;;;;;4964013;28;20205;-45
2021/06/09 09:50:24;;;;;;;6.05;5.50;;;24.90;45.80;;;;;;4967595;28;20221;-46
2021/06/09 09:52:50;;;;;;;6.90;6.18;;;24.80;45.90;;;;;;4963103;28;20284;-46
2021/06/09 09:55:16;;;;;;;10.10;6.20;;;24.90;46.20;;;;;;4974574;28;20243;-49
2021/06/09 09:57:42;;;;;;;6.10;5.43;;;24.90;46.00;;;;;;4974204;28;20247;-47
2021/06/09 10:00:09;;;;;;;6.47;5.55;;;24.90;45.40;;;;;;4974767;28;20212;-49
2021/06/09 10:02:35;;;;;;;8.13;5.57;;;24.90;45.60;;;;;;4974043;28;20204;-45
2021/06/09 10:05:03;;;;;;;5.93;5.18;;;24.90;45.70;;;;;;4973906;28;20208;-51
2021/06/09 10:07:29;;;;;;;6.90;5.97;;;24.90;45.70;;;;;;4973234;28;20307;-47
2021/06/09 10:09:59;;;;;;;10.20;6.38;;;24.90;46.10;;;;;;4974078;28;20212;-45
2021/06/09 10:12:25;;;;;;;7.78;6.10;;;24.90;46.10;;;;;;4973656;28;20299;-50
2021/06/09 10:14:51;;;;;;;7.15;5.82;;;24.90;46.20;;;;;;4973965;28;20227;-45
2021/06/09 10:17:17;;;;;;;7.82;6.07;;;24.90;46.20;;;;;;4973590;28;20570;-50
2021/06/09 10:19:43;;;;;;;6.97;5.90;;;24.90;46.30;;;;;;4973748;28;20211;-46
2021/06/09 10:22:09;;;;;;;7.85;6.28;;;24.90;46.50;;;;;;4973844;28;20641;-44
2021/06/09 10:24:35;;;;;;;6.00;5.50;;;24.90;46.30;;;;;;4973444;28;20209;-44
2021/06/09 10:27:05;;;;;;;6.57;5.72;;;24.80;46.00;;;;;;4969023;28;20209;-45
2021/06/09 10:29:33;;;;;;;6.57;5.50;;;24.90;46.00;;;;;;4970994;28;20208;-46
2021/06/09 10:31:59;;;;;;;7.18;5.88;;;24.90;46.00;;;;;;4972208;28;20314;-44
2021/06/09 10:34:26;;;;;;;8.05;6.07;;;24.90;45.80;;;;;;4970372;28;20221;-46
2021/06/09 10:36:52;;;;;;;6.60;5.90;;;24.90;46.30;;;;;;4967493;28;20228;-50
2021/06/09 10:39:18;;;;;;;7.10;5.78;;;24.90;46.10;;;;;;4968192;28;20197;-46
2021/06/09 10:41:44;;;;;;;5.88;5.38;;;24.90;46.10;;;;;;4972990;28;20254;-47
2021/06/09 10:44:10;;;;;;;8.85;6.35;;;24.90;46.40;;;;;;4971194;28;20204;-44
2021/06/09 10:46:36;;;;;;;8.50;7.70;;;24.90;46.00;;;;;;4971925;28;20621;-43
2021/06/09 10:49:02;;;;;;;8.57;7.70;;;24.80;44.60;;;;;;4966646;28;20270;-45
2021/06/09 10:51:28;;;;;;;8.30;7.50;;;24.80;45.90;;;;;;4967238;28;20370;-43
2021/06/09 10:53:54;;;;;;;7.68;6.93;;;24.80;45.70;;;;;;4971222;28;20201;-45
2021/06/09 10:56:20;;;;;;;7.15;6.40;;;24.90;45.70;;;;;;4970599;28;20228;-46
2021/06/09 10:58:46;;;;;;;7.75;6.22;;;24.90;45.50;;;;;;4973478;28;20213;-44
2021/06/09 11:01:12;;;;;;;7.28;6.68;;;24.90;45.40;;;;;;4971097;28;20224;-42
2021/06/09 11:03:41;;;;;;;8.15;5.75;;;24.90;46.10;;;;;;4971600;28;20641;-42
2021/06/09 11:06:07;;;;;;;9.93;7.78;;;24.90;45.50;;;;;;4970781;28;20224;-42
2021/06/09 11:08:33;;;;;;;7.43;6.53;;;24.90;46.00;;;;;;4969023;28;20208;-42
2021/06/09 11:10:59;;;;;;;7.88;7.07;;;24.90;45.80;;;;;;4968358;28;20224;-43
2021/06/09 11:13:25;;;;;;;7.18;6.57;;;24.90;45.90;;;;;;4971594;28;20197;-43
2021/06/09 11:15:51;;;;;;;9.40;7.47;;;24.90;46.00;;;;;;4958967;28;20256;-46
2021/06/09 11:18:17;;;;;;;8.13;7.13;;;24.90;46.00;;;;;;4965025;28;20669;-49
2021/06/09 11:20:43;;;;;;;7.80;6.93;;;24.90;46.10;;;;;;4971787;28;20224;-44
2021/06/09 11:23:10;;;;;;;8.25;7.38;;;24.90;46.00;;;;;;4971913;28;20200;-47
2021/06/09 11:25:37;;;;;;;9.48;7.60;;;25.00;46.10;;;;;;4971691;28;20201;-42
2021/06/09 11:28:03;;;;;;;8.73;7.35;;;25.00;46.30;;;;;;4971870;28;20204;-44
2021/06/09 11:30:29;;;;;;;8.27;7.43;;;25.00;46.60;;;;;;4970696;28;20225;-46
2021/06/09 11:32:55;;;;;;;7.82;7.13;;;24.90;46.50;;;;;;4971564;28;20205;-44
2021/06/09 11:35:23;;;;;;;8.95;6.93;;;25.00;46.70;;;;;;4971167;28;20224;-45
2021/06/09 11:37:49;;;;;;;8.93;7.30;;;25.00;46.20;;;;;;4969957;28;20602;-53
2021/06/09 11:40:15;;;;;;;8.02;6.82;;;25.00;46.10;;;;;;4967754;28;20383;-49
2021/06/09 11:42:41;;;;;;;7.40;6.70;;;24.90;46.20;;;;;;4971054;28;20211;-48
2021/06/09 11:45:07;;;;;;;8.18;7.38;;;25.00;45.90;;;;;;4964152;28;20235;-49
2021/06/09 11:47:35;;;;;;;8.30;7.50;;;25.00;46.30;;;;;;4968972;28;20220;-46
2021/06/09 11:50:01;;;;;;;7.57;6.80;;;25.00;46.60;;;;;;4971807;28;20406;-50
2021/06/09 11:52:27;;;;;;;9.07;7.60;;;25.00;46.70;;;;;;4971999;28;20201;-45
2021/06/09 11:54:53;;;;;;;8.52;7.03;;;25.00;46.70;;;;;;4971708;28;20893;-48
2021/06/09 11:57:19;;;;;;;7.78;6.97;;;25.00;46.60;;;;;;4970259;28;20769;-44
2021/06/09 11:59:45;;;;;;;7.65;6.85;;;25.00;46.70;;;;;;4969764;28;20311;-50
2021/06/09 12:02:11;;;;;;;7.40;6.75;;;25.00;46.70;;;;;;4969944;28;20216;-46
2021/06/09 12:04:37;;;;;;;9.45;7.60;;;25.00;46.70;;;;;;4972174;28;20205;-49
2021/06/09 12:07:05;;;;;;;7.22;6.53;;;25.00;46.70;;;;;;4970407;28;20585;-45
2021/06/09 12:09:31;;;;;;;7.50;6.78;;;25.00;46.60;;;;;;4968491;28;20279;-47
2021/06/09 12:11:57;;;;;;;7.22;6.53;;;25.00;46.50;;;;;;4967287;28;20212;-51
2021/06/09 12:14:23;;;;;;;6.82;6.10;;;25.00;46.50;;;;;;4971781;28;20232;-51
2021/06/09 12:16:49;;;;;;;6.97;6.30;;;25.00;46.30;;;;;;4971104;28;20595;-51
2021/06/09 12:19:15;;;;;;;6.10;5.47;;;25.00;46.30;;;;;;4965176;28;20201;-46
2021/06/09 12:21:40;;;;;;;7.63;6.13;;;25.00;45.90;;;;;;4963859;28;20704;-49
2021/06/09 12:24:06;;;;;;;7.13;6.43;;;25.00;45.70;;;;;;4966910;28;20212;-51
2021/06/09 12:26:32;;;;;;;8.73;6.07;;;25.00;46.00;;;;;;4970429;28;20211;-50
2021/06/09 12:28:58;;;;;;;6.18;5.57;;;25.00;45.90;;;;;;4971228;28;20211;-45
2021/06/09 12:31:24;;;;;;;7.55;5.90;;;25.00;45.70;;;;;;4967482;28;20215;-44
2021/06/09 12:33:50;;;;;;;5.97;5.47;;;25.00;45.80;;;;;;4970537;28;20208;-46
2021/06/09 12:36:16;;;;;;;6.97;5.60;;;25.00;45.50;;;;;;4970332;28;20236;-45
2021/06/09 12:38:42;;;;;;;5.88;5.38;;;25.00;45.40;;;;;;4970142;28;20231;-49